sensor_id;sensor_type;location;lat;lon;timestamp;pressure;altitude;pressure_sealevel;temperature;humidity
20444;BME280;10381;53.730;10.010;2023-02-26T00:01:28;101290.84;;;-2.90;100.00
20444;BME280;10381;53.730;10.010;2023-02-26T00:05:28;101298.31;;;-2.76;100.00
20444;BME280;10381;53.730;10.010;2023-02-26T00:09:29;101304.34;;;-2.76;100.00
20444;BME280;10381;53.730;10.010;2023-02-26T00:13:29;101312.97;;;-2.77;100.00
20444;BME280;10381;53.730;10.010;2023-02-26T00:17:56;101311.06;;;-2.69;100.00
20444;BME280;10381;53.730;10.010;2023-02-26T00:21:57;101316.41;;;-2.75;100.00
20444;BME280;10381;53.730;10.010;2023-02-26T00:25:58;101321.88;;;-2.87;100.00
20444;BME280;10381;53.730;10.010;2023-02-26T00:29:58;101328.84;;;-2.89;100.00
20444;BME280;10381;53.730;10.010;2023-02-26T00:33:59;101332.22;;;-2.86;100.00
20444;BME280;10381;53.730;10.010;2023-02-26T00:38:09;101332.56;;;-3.00;100.00
20444;BME280;10381;53.730;10.010;2023-02-26T00:42:10;101350.69;;;-3.00;100.00
20444;BME280;10381;53.730;10.010;2023-02-26T00:46:41;101355.97;;;-2.67;100.00
20444;BME280;10381;53.730;10.010;2023-02-26T00:50:54;101359.09;;;-2.52;100.00
20444;BME280;10381;53.730;10.010;2023-02-26T00:54:57;101360.91;;;-2.58;100.00
20444;BME280;10381;53.730;10.010;2023-02-26T00:58:58;101353.94;;;-2.54;100.00
20444;BME280;10381;53.730;10.010;2023-02-26T01:02:58;101365.19;;;-2.55;100.00
20444;BME280;10381;53.730;10.010;2023-02-26T01:06:59;101370.03;;;-2.41;100.00
20444;BME280;10381;53.730;10.010;2023-02-26T01:10:59;101368.28;;;-2.41;100.00
20444;BME280;10381;53.730;10.010;2023-02-26T01:15:00;101368.00;;;-2.28;100.00
20444;BME280;10381;53.730;10.010;2023-02-26T01:19:19;101368.78;;;-2.26;100.00
20444;BME280;10381;53.730;10.010;2023-02-26T01:23:25;101376.56;;;-2.26;100.00
20444;BME280;10381;53.730;10.010;2023-02-26T01:27:25;101379.22;;;-2.28;100.00
20444;BME280;10381;53.730;10.010;2023-02-26T01:35:52;101385.88;;;-2.18;100.00
20444;BME280;10381;53.730;10.010;2023-02-26T01:40:12;101387.72;;;-2.21;100.00
20444;BME280;10381;53.730;10.010;2023-02-26T01:48:56;101395.31;;;-2.49;100.00
20444;BME280;10381;53.730;10.010;2023-02-26T01:57:14;101393.06;;;-3.01;100.00
20444;BME280;10381;53.730;10.010;2023-02-26T02:01:16;101394.34;;;-3.20;100.00
20444;BME280;10381;53.730;10.010;2023-02-26T02:05:38;101398.34;;;-3.46;100.00
20444;BME280;10381;53.730;10.010;2023-02-26T02:09:40;101414.91;;;-3.53;100.00
20444;BME280;10381;53.730;10.010;2023-02-26T02:18:15;101424.00;;;-3.78;100.00
20444;BME280;10381;53.730;10.010;2023-02-26T02:27:02;101445.75;;;-3.87;100.00
20444;BME280;10381;53.730;10.010;2023-02-26T02:36:02;101450.59;;;-3.69;100.00
20444;BME280;10381;53.730;10.010;2023-02-26T02:39:41;101457.94;;;-3.46;100.00
20444;BME280;10381;53.730;10.010;2023-02-26T02:43:44;101460.19;;;-3.30;100.00
20444;BME280;10381;53.730;10.010;2023-02-26T02:47:47;101454.09;;;-3.26;100.00
20444;BME280;10381;53.730;10.010;2023-02-26T02:52:00;101460.03;;;-3.23;100.00
20444;BME280;10381;53.730;10.010;2023-02-26T02:56:06;101466.03;;;-3.19;100.00
20444;BME280;10381;53.730;10.010;2023-02-26T03:00:11;101467.53;;;-3.52;100.00
20444;BME280;10381;53.730;10.010;2023-02-26T03:04:14;101483.94;;;-3.52;100.00
20444;BME280;10381;53.730;10.010;2023-02-26T03:08:19;101478.59;;;-3.43;100.00
20444;BME280;10381;53.730;10.010;2023-02-26T03:12:20;101486.75;;;-3.62;100.00
20444;BME280;10381;53.730;10.010;2023-02-26T03:16:37;101489.03;;;-3.47;100.00
20444;BME280;10381;53.730;10.010;2023-02-26T03:20:51;101494.53;;;-3.66;100.00
20444;BME280;10381;53.730;10.010;2023-02-26T03:29:50;101502.09;;;-4.03;100.00
20444;BME280;10381;53.730;10.010;2023-02-26T03:34:16;101509.31;;;-4.23;100.00
20444;BME280;10381;53.730;10.010;2023-02-26T03:38:32;101523.31;;;-4.37;100.00
20444;BME280;10381;53.730;10.010;2023-02-26T03:42:40;101518.50;;;-4.61;100.00
20444;BME280;10381;53.730;10.010;2023-02-26T03:46:46;101527.56;;;-4.96;100.00
20444;BME280;10381;53.730;10.010;2023-02-26T03:50:50;101539.97;;;-5.26;100.00
20444;BME280;10381;53.730;10.010;2023-02-26T03:54:58;101535.16;;;-5.60;100.00
20444;BME280;10381;53.730;10.010;2023-02-26T03:58:59;101548.13;;;-5.67;100.00
20444;BME280;10381;53.730;10.010;2023-02-26T04:07:11;101564.97;;;-5.29;100.00
20444;BME280;10381;53.730;10.010;2023-02-26T04:11:18;101572.50;;;-5.08;100.00
20444;BME280;10381;53.730;10.010;2023-02-26T04:15:19;101581.00;;;-4.98;100.00
20444;BME280;10381;53.730;10.010;2023-02-26T04:19:19;101590.56;;;-5.08;100.00
20444;BME280;10381;53.730;10.010;2023-02-26T04:23:19;101589.69;;;-5.05;100.00
20444;BME280;10381;53.730;10.010;2023-02-26T04:27:20;101589.00;;;-5.21;100.00
20444;BME280;10381;53.730;10.010;2023-02-26T04:31:20;101593.38;;;-5.26;100.00
20444;BME280;10381;53.730;10.010;2023-02-26T04:35:20;101600.13;;;-5.15;100.00
20444;BME280;10381;53.730;10.010;2023-02-26T04:39:22;101599.31;;;-5.20;100.00
20444;BME280;10381;53.730;10.010;2023-02-26T04:43:22;101603.56;;;-5.14;100.00
20444;BME280;10381;53.730;10.010;2023-02-26T04:47:23;101610.44;;;-5.13;100.00
20444;BME280;10381;53.730;10.010;2023-02-26T04:51:23;101620.81;;;-5.15;100.00
20444;BME280;10381;53.730;10.010;2023-02-26T04:55:23;101625.13;;;-5.18;100.00
20444;BME280;10381;53.730;10.010;2023-02-26T04:59:24;101634.66;;;-5.23;100.00
20444;BME280;10381;53.730;10.010;2023-02-26T05:03:24;101632.66;;;-4.97;100.00
20444;BME280;10381;53.730;10.010;2023-02-26T05:07:24;101633.31;;;-4.76;100.00
20444;BME280;10381;53.730;10.010;2023-02-26T05:11:25;101655.50;;;-4.57;100.00
20444;BME280;10381;53.730;10.010;2023-02-26T05:15:25;101650.81;;;-4.25;100.00
20444;BME280;10381;53.730;10.010;2023-02-26T05:19:25;101654.34;;;-4.33;100.00
20444;BME280;10381;53.730;10.010;2023-02-26T05:23:26;101663.00;;;-4.35;100.00
20444;BME280;10381;53.730;10.010;2023-02-26T05:27:26;101661.16;;;-4.25;100.00
20444;BME280;10381;53.730;10.010;2023-02-26T05:31:26;101663.75;;;-4.29;100.00
20444;BME280;10381;53.730;10.010;2023-02-26T05:35:27;101678.69;;;-4.49;100.00
20444;BME280;10381;53.730;10.010;2023-02-26T05:39:28;101688.22;;;-4.54;100.00
20444;BME280;10381;53.730;10.010;2023-02-26T05:43:28;101693.50;;;-4.63;100.00
20444;BME280;10381;53.730;10.010;2023-02-26T05:47:28;101690.75;;;-4.50;100.00
20444;BME280;10381;53.730;10.010;2023-02-26T05:51:29;101700.31;;;-4.58;100.00
20444;BME280;10381;53.730;10.010;2023-02-26T05:55:29;101702.81;;;-4.47;100.00
20444;BME280;10381;53.730;10.010;2023-02-26T05:59:29;101708.03;;;-4.53;100.00
20444;BME280;10381;53.730;10.010;2023-02-26T06:03:30;101719.50;;;-4.77;100.00
20444;BME280;10381;53.730;10.010;2023-02-26T06:07:30;101725.47;;;-4.71;100.00
20444;BME280;10381;53.730;10.010;2023-02-26T06:11:31;101727.72;;;-4.40;100.00
20444;BME280;10381;53.730;10.010;2023-02-26T06:15:31;101732.06;;;-4.42;100.00
20444;BME280;10381;53.730;10.010;2023-02-26T06:19:32;101740.84;;;-4.57;100.00
20444;BME280;10381;53.730;10.010;2023-02-26T06:23:32;101749.13;;;-4.25;100.00
20444;BME280;10381;53.730;10.010;2023-02-26T06:27:33;101755.84;;;-4.11;100.00
20444;BME280;10381;53.730;10.010;2023-02-26T06:31:33;101753.09;;;-3.97;100.00
20444;BME280;10381;53.730;10.010;2023-02-26T06:35:34;101765.91;;;-3.88;100.00
20444;BME280;10381;53.730;10.010;2023-02-26T06:39:34;101762.19;;;-3.68;100.00
20444;BME280;10381;53.730;10.010;2023-02-26T06:43:34;101760.31;;;-3.55;100.00
20444;BME280;10381;53.730;10.010;2023-02-26T06:47:34;101773.88;;;-3.39;100.00
20444;BME280;10381;53.730;10.010;2023-02-26T06:51:35;101770.22;;;-3.25;100.00
20444;BME280;10381;53.730;10.010;2023-02-26T06:55:35;101778.03;;;-3.28;100.00
20444;BME280;10381;53.730;10.010;2023-02-26T06:59:35;101782.53;;;-3.39;100.00
20444;BME280;10381;53.730;10.010;2023-02-26T07:03:36;101785.19;;;-3.47;100.00
20444;BME280;10381;53.730;10.010;2023-02-26T07:07:36;101787.84;;;-3.50;100.00
20444;BME280;10381;53.730;10.010;2023-02-26T07:11:36;101799.00;;;-3.45;100.00
20444;BME280;10381;53.730;10.010;2023-02-26T07:15:37;101813.44;;;-3.27;100.00
20444;BME280;10381;53.730;10.010;2023-02-26T07:19:37;101807.81;;;-2.97;100.00
20444;BME280;10381;53.730;10.010;2023-02-26T07:23:37;101804.75;;;-2.70;100.00
20444;BME280;10381;53.730;10.010;2023-02-26T07:27:38;101810.56;;;-2.55;100.00
20444;BME280;10381;53.730;10.010;2023-02-26T07:31:38;101810.41;;;-2.48;100.00
20444;BME280;10381;53.730;10.010;2023-02-26T07:35:39;101811.91;;;-2.33;100.00
20444;BME280;10381;53.730;10.010;2023-02-26T07:39:39;101821.16;;;-2.20;100.00
20444;BME280;10381;53.730;10.010;2023-02-26T07:43:40;101827.88;;;-2.08;100.00
20444;BME280;10381;53.730;10.010;2023-02-26T07:47:41;101818.13;;;-1.97;100.00
20444;BME280;10381;53.730;10.010;2023-02-26T07:51:41;101821.34;;;-1.84;100.00
20444;BME280;10381;53.730;10.010;2023-02-26T07:55:44;101835.06;;;-1.77;100.00
20444;BME280;10381;53.730;10.010;2023-02-26T07:59:45;101833.91;;;-1.64;100.00
20444;BME280;10381;53.730;10.010;2023-02-26T08:03:45;101840.56;;;-1.49;100.00
20444;BME280;10381;53.730;10.010;2023-02-26T08:07:45;101837.53;;;-1.31;100.00
20444;BME280;10381;53.730;10.010;2023-02-26T08:11:46;101846.03;;;-1.22;100.00
20444;BME280;10381;53.730;10.010;2023-02-26T08:15:47;101849.75;;;-0.95;100.00
20444;BME280;10381;53.730;10.010;2023-02-26T08:19:47;101861.94;;;-0.61;100.00
20444;BME280;10381;53.730;10.010;2023-02-26T08:23:47;101871.53;;;-0.29;100.00
20444;BME280;10381;53.730;10.010;2023-02-26T08:27:48;101886.69;;;-0.11;100.00
20444;BME280;10381;53.730;10.010;2023-02-26T08:31:48;101898.44;;;0.06;100.00
20444;BME280;10381;53.730;10.010;2023-02-26T08:35:48;101903.75;;;0.03;100.00
20444;BME280;10381;53.730;10.010;2023-02-26T08:39:49;101910.84;;;-0.04;100.00
20444;BME280;10381;53.730;10.010;2023-02-26T08:43:50;101918.13;;;0.16;100.00
20444;BME280;10381;53.730;10.010;2023-02-26T08:47:50;101922.28;;;0.54;100.00
20444;BME280;10381;53.730;10.010;2023-02-26T08:51:52;101934.75;;;0.43;100.00
20444;BME280;10381;53.730;10.010;2023-02-26T08:55:52;101934.84;;;0.71;100.00
20444;BME280;10381;53.730;10.010;2023-02-26T08:59:53;101935.47;;;1.09;100.00
20444;BME280;10381;53.730;10.010;2023-02-26T09:03:53;101950.78;;;0.92;100.00
20444;BME280;10381;53.730;10.010;2023-02-26T09:07:53;101955.81;;;1.27;100.00
20444;BME280;10381;53.730;10.010;2023-02-26T09:11:53;101961.09;;;1.24;100.00
20444;BME280;10381;53.730;10.010;2023-02-26T09:15:54;101970.22;;;1.39;100.00
20444;BME280;10381;53.730;10.010;2023-02-26T09:19:55;101962.06;;;2.03;100.00
20444;BME280;10381;53.730;10.010;2023-02-26T09:23:56;101972.75;;;2.22;100.00
20444;BME280;10381;53.730;10.010;2023-02-26T09:27:56;101973.41;;;2.29;100.00
20444;BME280;10381;53.730;10.010;2023-02-26T09:31:56;101982.34;;;2.22;100.00
20444;BME280;10381;53.730;10.010;2023-02-26T09:35:56;101981.41;;;2.24;100.00
20444;BME280;10381;53.730;10.010;2023-02-26T09:39:57;101983.56;;;1.85;100.00
20444;BME280;10381;53.730;10.010;2023-02-26T09:48:05;102004.06;;;2.97;100.00
20444;BME280;10381;53.730;10.010;2023-02-26T09:52:15;102005.88;;;2.72;100.00
20444;BME280;10381;53.730;10.010;2023-02-26T09:56:21;102001.72;;;3.37;100.00
20444;BME280;10381;53.730;10.010;2023-02-26T10:09:15;102018.97;;;2.47;100.00
20444;BME280;10381;53.730;10.010;2023-02-26T10:13:42;102024.16;;;2.97;100.00
20444;BME280;10381;53.730;10.010;2023-02-26T10:18:00;102025.91;;;2.73;100.00
20444;BME280;10381;53.730;10.010;2023-02-26T10:22:07;102038.78;;;2.29;100.00
20444;BME280;10381;53.730;10.010;2023-02-26T10:26:39;102038.09;;;2.97;100.00
20444;BME280;10381;53.730;10.010;2023-02-26T10:30:49;102041.50;;;2.51;100.00
20444;BME280;10381;53.730;10.010;2023-02-26T10:34:55;102047.16;;;2.64;100.00
20444;BME280;10381;53.730;10.010;2023-02-26T10:39:17;102054.16;;;3.81;100.00
20444;BME280;10381;53.730;10.010;2023-02-26T10:43:28;102049.78;;;3.36;100.00
20444;BME280;10381;53.730;10.010;2023-02-26T10:48:19;102053.88;;;4.31;100.00
20444;BME280;10381;53.730;10.010;2023-02-26T10:52:09;102069.75;;;3.62;100.00
20444;BME280;10381;53.730;10.010;2023-02-26T10:56:15;102066.81;;;3.70;100.00
20444;BME280;10381;53.730;10.010;2023-02-26T11:00:19;102058.53;;;3.80;100.00
20444;BME280;10381;53.730;10.010;2023-02-26T11:04:24;102072.03;;;3.48;100.00
20444;BME280;10381;53.730;10.010;2023-02-26T11:08:26;102072.13;;;2.97;100.00
20444;BME280;10381;53.730;10.010;2023-02-26T11:12:26;102068.50;;;3.02;100.00
20444;BME280;10381;53.730;10.010;2023-02-26T11:16:28;102076.13;;;2.84;100.00
20444;BME280;10381;53.730;10.010;2023-02-26T11:20:41;102077.50;;;2.43;100.00
20444;BME280;10381;53.730;10.010;2023-02-26T11:24:45;102086.56;;;3.56;100.00
20444;BME280;10381;53.730;10.010;2023-02-26T11:28:48;102083.03;;;3.10;100.00
20444;BME280;10381;53.730;10.010;2023-02-26T11:32:52;102078.66;;;2.86;100.00
20444;BME280;10381;53.730;10.010;2023-02-26T11:36:55;102085.38;;;3.18;100.00
20444;BME280;10381;53.730;10.010;2023-02-26T11:40:57;102085.47;;;3.38;100.00
20444;BME280;10381;53.730;10.010;2023-02-26T11:44:59;102077.25;;;3.71;100.00
20444;BME280;10381;53.730;10.010;2023-02-26T11:49:00;102074.22;;;3.13;100.00
20444;BME280;10381;53.730;10.010;2023-02-26T11:53:07;102083.66;;;3.40;100.00
20444;BME280;10381;53.730;10.010;2023-02-26T11:57:22;102074.72;;;4.34;100.00
20444;BME280;10381;53.730;10.010;2023-02-26T12:01:27;102077.25;;;3.71;100.00
20444;BME280;10381;53.730;10.010;2023-02-26T12:05:29;102071.19;;;4.13;100.00
20444;BME280;10381;53.730;10.010;2023-02-26T12:09:30;102066.41;;;4.23;100.00
20444;BME280;10381;53.730;10.010;2023-02-26T12:13:43;102073.50;;;4.84;100.00
20444;BME280;10381;53.730;10.010;2023-02-26T12:22:08;102076.81;;;3.82;100.00
20444;BME280;10381;53.730;10.010;2023-02-26T12:26:28;102066.41;;;3.80;100.00
20444;BME280;10381;53.730;10.010;2023-02-26T12:43:48;102057.03;;;4.17;100.00
20444;BME280;10381;53.730;10.010;2023-02-26T12:56:54;102072.22;;;4.52;100.00
20444;BME280;10381;53.730;10.010;2023-02-26T13:05:38;102062.75;;;4.27;100.00
20444;BME280;10381;53.730;10.010;2023-02-26T13:22:41;102070.72;;;4.66;100.00
20444;BME280;10381;53.730;10.010;2023-02-26T13:26:46;102074.53;;;4.39;100.00
20444;BME280;10381;53.730;10.010;2023-02-26T13:30:49;102070.84;;;4.63;100.00
20444;BME280;10381;53.730;10.010;2023-02-26T13:34:57;102074.41;;;4.62;100.00
20444;BME280;10381;53.730;10.010;2023-02-26T13:47:51;102064.59;;;4.25;100.00
20444;BME280;10381;53.730;10.010;2023-02-26T13:51:53;102064.31;;;3.89;100.00
20444;BME280;10381;53.730;10.010;2023-02-26T13:56:05;102061.34;;;3.54;100.00
20444;BME280;10381;53.730;10.010;2023-02-26T14:00:32;102063.38;;;3.68;100.00
20444;BME280;10381;53.730;10.010;2023-02-26T14:04:53;102071.50;;;4.68;100.00
20444;BME280;10381;53.730;10.010;2023-02-26T14:08:55;102082.91;;;5.08;100.00
20444;BME280;10381;53.730;10.010;2023-02-26T14:13:15;102076.22;;;4.40;100.00
20444;BME280;10381;53.730;10.010;2023-02-26T14:25:32;102086.56;;;4.22;100.00
20444;BME280;10381;53.730;10.010;2023-02-26T14:34:14;102082.03;;;3.60;100.00
20444;BME280;10381;53.730;10.010;2023-02-26T14:38:30;102089.56;;;3.46;100.00
20444;BME280;10381;53.730;10.010;2023-02-26T14:42:37;102087.03;;;3.44;100.00
20444;BME280;10381;53.730;10.010;2023-02-26T14:46:39;102089.38;;;3.96;100.00
20444;BME280;10381;53.730;10.010;2023-02-26T14:50:49;102084.38;;;4.12;100.00
20444;BME280;10381;53.730;10.010;2023-02-26T14:55:09;102103.34;;;3.51;100.00
20444;BME280;10381;53.730;10.010;2023-02-26T15:08:36;102097.53;;;3.66;100.00
20444;BME280;10381;53.730;10.010;2023-02-26T15:13:21;102107.28;;;3.62;100.00
20444;BME280;10381;53.730;10.010;2023-02-26T15:17:41;102116.69;;;3.21;100.00
20444;BME280;10381;53.730;10.010;2023-02-26T15:22:10;102111.56;;;2.93;100.00
20444;BME280;10381;53.730;10.010;2023-02-26T15:26:19;102111.31;;;3.24;100.00
20444;BME280;10381;53.730;10.010;2023-02-26T15:30:22;102111.94;;;3.78;100.00
20444;BME280;10381;53.730;10.010;2023-02-26T15:34:22;102126.91;;;3.74;100.00
20444;BME280;10381;53.730;10.010;2023-02-26T15:38:23;102123.19;;;3.34;100.00
20444;BME280;10381;53.730;10.010;2023-02-26T15:42:29;102118.25;;;3.02;100.00
20444;BME280;10381;53.730;10.010;2023-02-26T15:46:36;102127.69;;;2.81;100.00
20444;BME280;10381;53.730;10.010;2023-02-26T15:50:41;102128.22;;;2.65;100.00
20444;BME280;10381;53.730;10.010;2023-02-26T15:54:46;102123.66;;;2.72;100.00
20444;BME280;10381;53.730;10.010;2023-02-26T15:58:51;102134.03;;;2.73;100.00
20444;BME280;10381;53.730;10.010;2023-02-26T16:02:54;102132.13;;;2.78;100.00
20444;BME280;10381;53.730;10.010;2023-02-26T16:06:56;102131.00;;;2.86;100.00
20444;BME280;10381;53.730;10.010;2023-02-26T16:10:58;102136.41;;;2.81;100.00
20444;BME280;10381;53.730;10.010;2023-02-26T16:15:03;102134.69;;;2.80;100.00
20444;BME280;10381;53.730;10.010;2023-02-26T16:19:05;102136.06;;;2.65;100.00
20444;BME280;10381;53.730;10.010;2023-02-26T16:23:11;102149.91;;;2.42;100.00
20444;BME280;10381;53.730;10.010;2023-02-26T16:27:12;102143.41;;;1.99;100.00
20444;BME280;10381;53.730;10.010;2023-02-26T16:31:18;102145.94;;;1.73;100.00
20444;BME280;10381;53.730;10.010;2023-02-26T16:35:21;102151.28;;;1.40;100.00
20444;BME280;10381;53.730;10.010;2023-02-26T16:39:25;102156.03;;;1.24;100.00
20444;BME280;10381;53.730;10.010;2023-02-26T16:43:33;102157.66;;;0.97;100.00
20444;BME280;10381;53.730;10.010;2023-02-26T16:47:35;102165.81;;;0.84;100.00
20444;BME280;10381;53.730;10.010;2023-02-26T16:51:38;102167.06;;;0.68;100.00
20444;BME280;10381;53.730;10.010;2023-02-26T16:55:39;102174.28;;;0.58;100.00
20444;BME280;10381;53.730;10.010;2023-02-26T16:59:42;102179.94;;;0.38;100.00
20444;BME280;10381;53.730;10.010;2023-02-26T17:03:49;102187.19;;;0.26;100.00
20444;BME280;10381;53.730;10.010;2023-02-26T17:08:08;102199.19;;;0.33;100.00
20444;BME280;10381;53.730;10.010;2023-02-26T17:12:14;102210.97;;;0.12;100.00
20444;BME280;10381;53.730;10.010;2023-02-26T17:16:14;102207.22;;;0.24;100.00
20444;BME280;10381;53.730;10.010;2023-02-26T17:20:15;102213.63;;;0.09;100.00
20444;BME280;10381;53.730;10.010;2023-02-26T17:24:21;102209.53;;;-0.03;100.00
20444;BME280;10381;53.730;10.010;2023-02-26T17:28:26;102214.72;;;0.00;100.00
20444;BME280;10381;53.730;10.010;2023-02-26T17:32:26;102218.47;;;-0.15;100.00
20444;BME280;10381;53.730;10.010;2023-02-26T17:36:27;102222.22;;;-0.28;100.00
20444;BME280;10381;53.730;10.010;2023-02-26T17:40:32;102219.13;;;-0.46;100.00
20444;BME280;10381;53.730;10.010;2023-02-26T17:44:35;102228.72;;;-0.49;100.00
20444;BME280;10381;53.730;10.010;2023-02-26T17:48:35;102226.50;;;-0.69;100.00
20444;BME280;10381;53.730;10.010;2023-02-26T17:52:36;102229.56;;;-0.97;100.00
20444;BME280;10381;53.730;10.010;2023-02-26T17:56:36;102243.75;;;-1.15;100.00
20444;BME280;10381;53.730;10.010;2023-02-26T18:00:36;102246.31;;;-1.13;100.00
20444;BME280;10381;53.730;10.010;2023-02-26T18:04:39;102256.25;;;-1.40;100.00
20444;BME280;10381;53.730;10.010;2023-02-26T18:08:40;102250.56;;;-1.66;100.00
20444;BME280;10381;53.730;10.010;2023-02-26T18:12:41;102250.13;;;-1.98;100.00
20444;BME280;10381;53.730;10.010;2023-02-26T18:16:42;102251.22;;;-2.14;100.00
20444;BME280;10381;53.730;10.010;2023-02-26T18:20:44;102255.03;;;-2.47;100.00
20444;BME280;10381;53.730;10.010;2023-02-26T18:24:45;102250.19;;;-2.81;100.00
20444;BME280;10381;53.730;10.010;2023-02-26T18:28:45;102260.78;;;-3.07;100.00
20444;BME280;10381;53.730;10.010;2023-02-26T18:32:46;102263.56;;;-3.35;100.00
20444;BME280;10381;53.730;10.010;2023-02-26T18:36:46;102263.50;;;-3.24;100.00
20444;BME280;10381;53.730;10.010;2023-02-26T18:40:48;102264.94;;;-2.89;100.00
20444;BME280;10381;53.730;10.010;2023-02-26T18:44:49;102267.72;;;-3.11;100.00
20444;BME280;10381;53.730;10.010;2023-02-26T18:48:50;102263.66;;;-3.46;100.00
20444;BME280;10381;53.730;10.010;2023-02-26T18:52:50;102261.19;;;-3.73;100.00
20444;BME280;10381;53.730;10.010;2023-02-26T18:56:50;102262.13;;;-3.85;100.00
20444;BME280;10381;53.730;10.010;2023-02-26T19:00:51;102257.84;;;-3.84;100.00
20444;BME280;10381;53.730;10.010;2023-02-26T19:04:51;102269.06;;;-3.87;100.00
20444;BME280;10381;53.730;10.010;2023-02-26T19:08:52;102274.19;;;-3.76;100.00
20444;BME280;10381;53.730;10.010;2023-02-26T19:12:52;102275.09;;;-3.87;100.00
20444;BME280;10381;53.730;10.010;2023-02-26T19:16:53;102275.97;;;-3.91;100.00
20444;BME280;10381;53.730;10.010;2023-02-26T19:20:53;102276.81;;;-3.89;100.00
20444;BME280;10381;53.730;10.010;2023-02-26T19:24:54;102276.03;;;-4.08;100.00
20444;BME280;10381;53.730;10.010;2023-02-26T19:28:54;102271.81;;;-4.25;100.00
20444;BME280;10381;53.730;10.010;2023-02-26T19:32:54;102276.84;;;-3.95;100.00
20444;BME280;10381;53.730;10.010;2023-02-26T19:36:55;102285.44;;;-3.90;100.00
20444;BME280;10381;53.730;10.010;2023-02-26T19:40:56;102277.78;;;-4.13;100.00
20444;BME280;10381;53.730;10.010;2023-02-26T19:44:58;102283.75;;;-3.94;100.00
20444;BME280;10381;53.730;10.010;2023-02-26T19:48:58;102290.75;;;-4.17;100.00
20444;BME280;10381;53.730;10.010;2023-02-26T19:52:58;102294.22;;;-4.34;100.00
20444;BME280;10381;53.730;10.010;2023-02-26T19:56:59;102289.94;;;-4.42;100.00
20444;BME280;10381;53.730;10.010;2023-02-26T20:01:01;102299.41;;;-4.34;100.00
20444;BME280;10381;53.730;10.010;2023-02-26T20:05:03;102301.16;;;-4.57;100.00
20444;BME280;10381;53.730;10.010;2023-02-26T20:09:04;102302.06;;;-4.71;100.00
20444;BME280;10381;53.730;10.010;2023-02-26T20:13:06;102308.94;;;-4.66;100.00
20444;BME280;10381;53.730;10.010;2023-02-26T20:17:06;102323.56;;;-4.53;100.00
20444;BME280;10381;53.730;10.010;2023-02-26T20:21:08;102321.88;;;-4.60;100.00
20444;BME280;10381;53.730;10.010;2023-02-26T20:25:09;102317.56;;;-4.71;100.00
20444;BME280;10381;53.730;10.010;2023-02-26T20:29:09;102320.16;;;-4.75;100.00
20444;BME280;10381;53.730;10.010;2023-02-26T20:33:10;102325.34;;;-4.74;100.00
20444;BME280;10381;53.730;10.010;2023-02-26T20:37:11;102333.09;;;-4.78;100.00
20444;BME280;10381;53.730;10.010;2023-02-26T20:41:11;102337.38;;;-4.80;100.00
20444;BME280;10381;53.730;10.010;2023-02-26T20:45:11;102337.38;;;-4.89;100.00
20444;BME280;10381;53.730;10.010;2023-02-26T20:49:12;102336.50;;;-4.62;100.00
20444;BME280;10381;53.730;10.010;2023-02-26T20:53:12;102342.53;;;-4.91;100.00
20444;BME280;10381;53.730;10.010;2023-02-26T20:57:12;102348.59;;;-4.83;100.00
20444;BME280;10381;53.730;10.010;2023-02-26T21:01:13;102354.63;;;-4.87;100.00
20444;BME280;10381;53.730;10.010;2023-02-26T21:05:13;102361.50;;;-4.92;100.00
20444;BME280;10381;53.730;10.010;2023-02-26T21:09:14;102356.34;;;-4.90;100.00
20444;BME280;10381;53.730;10.010;2023-02-26T21:13:14;102362.38;;;-4.98;100.00
20444;BME280;10381;53.730;10.010;2023-02-26T21:17:15;102368.38;;;-5.03;100.00
20444;BME280;10381;53.730;10.010;2023-02-26T21:21:15;102370.09;;;-5.05;100.00
20444;BME280;10381;53.730;10.010;2023-02-26T21:25:16;102374.44;;;-4.71;100.00
20444;BME280;10381;53.730;10.010;2023-02-26T21:29:16;102379.63;;;-4.67;100.00
20444;BME280;10381;53.730;10.010;2023-02-26T21:33:17;102380.50;;;-4.76;100.00
20444;BME280;10381;53.730;10.010;2023-02-26T21:37:17;102376.13;;;-4.96;100.00
20444;BME280;10381;53.730;10.010;2023-02-26T21:41:17;102384.75;;;-5.03;100.00
20444;BME280;10381;53.730;10.010;2023-02-26T21:45:19;102389.91;;;-5.10;100.00
20444;BME280;10381;53.730;10.010;2023-02-26T21:49:19;102393.31;;;-5.18;100.00
20444;BME280;10381;53.730;10.010;2023-02-26T21:53:19;102391.59;;;-5.13;100.00
20444;BME280;10381;53.730;10.010;2023-02-26T21:57:20;102397.63;;;-5.29;100.00
20444;BME280;10381;53.730;10.010;2023-02-26T22:01:20;102407.13;;;-5.13;100.00
20444;BME280;10381;53.730;10.010;2023-02-26T22:05:21;102400.28;;;-4.86;100.00
20444;BME280;10381;53.730;10.010;2023-02-26T22:09:21;102408.06;;;-4.24;100.00
20444;BME280;10381;53.730;10.010;2023-02-26T22:13:22;102409.75;;;-4.79;100.00
20444;BME280;10381;53.730;10.010;2023-02-26T22:17:22;102403.72;;;-4.92;100.00
20444;BME280;10381;53.730;10.010;2023-02-26T22:21:22;102407.97;;;-5.10;100.00
20444;BME280;10381;53.730;10.010;2023-02-26T22:25:23;102399.31;;;-5.29;100.00
20444;BME280;10381;53.730;10.010;2023-02-26T22:29:23;102401.06;;;-5.24;100.00
20444;BME280;10381;53.730;10.010;2023-02-26T22:33:24;102404.53;;;-5.13;100.00
20444;BME280;10381;53.730;10.010;2023-02-26T22:37:24;102404.53;;;-5.19;100.00
20444;BME280;10381;53.730;10.010;2023-02-26T22:41:24;102402.81;;;-5.17;100.00
20444;BME280;10381;53.730;10.010;2023-02-26T22:45:25;102405.38;;;-5.24;100.00
20444;BME280;10381;53.730;10.010;2023-02-26T22:49:25;102401.06;;;-5.22;100.00